Time;durP1;ratioP1;P1;durP2;ratioP2;P2;SDS_P1;SDS_P2;PMS_P1;PMS_P2;Temp;Humidity;BMP_temperature;BMP_pressure;BME280_temperature;BME280_humidity;BME280_pressure;Samples;Min_cycle;Max_cycle;Signal;HPM_P1;HPM_P2
2023/05/14 00:01:34;;;;;;;57.77;3.73;;;;;;;;;;5073228;28;20503;-67
2023/05/14 00:04:02;;;;;;;58.53;3.37;;;;;;;;;;5073211;28;20455;-67
2023/05/14 00:06:29;;;;;;;59.10;5.30;;;;;;;;;;5073409;28;20549;-67
2023/05/14 00:08:56;;;;;;;57.73;3.60;;;;;;;;;;5072977;28;20479;-67
2023/05/14 00:11:24;;;;;;;57.70;3.70;;;;;;;;;;5073087;28;20470;-67
2023/05/14 00:13:51;;;;;;;57.30;3.10;;;;;;;;;;5073119;28;20544;-67
2023/05/14 00:16:18;;;;;;;58.20;3.53;;;;;;;;;;5073422;28;20435;-67
2023/05/14 00:18:46;;;;;;;59.07;4.23;;;;;;;;;;5072906;28;20880;-67
2023/05/14 00:21:13;;;;;;;57.60;2.60;;;;;;;;;;5073005;28;20470;-67
2023/05/14 00:23:40;;;;;;;57.73;3.53;;;;;;;;;;5072926;28;20909;-67
2023/05/14 00:26:07;;;;;;;58.00;3.37;;;;;;;;;;5072901;28;20489;-67
2023/05/14 00:28:36;;;;;;;59.00;3.17;;;;;;;;;;5072635;28;20458;-67
2023/05/14 00:31:03;;;;;;;57.40;2.90;;;;;;;;;;5072983;28;21186;-67
2023/05/14 00:33:30;;;;;;;57.90;3.37;;;;;;;;;;5072961;28;20946;-67
2023/05/14 00:35:57;;;;;;;57.20;2.97;;;;;;;;;;5072865;28;20453;-67
2023/05/14 00:38:26;;;;;;;59.30;3.27;;;;;;;;;;5072575;28;20447;-67
2023/05/14 00:40:53;;;;;;;57.57;3.37;;;;;;;;;;5072343;28;20503;-67
2023/05/14 00:43:21;;;;;;;57.90;3.80;;;;;;;;;;5072430;28;20454;-67
2023/05/14 00:45:50;;;;;;;57.73;3.17;;;;;;;;;;5072403;28;21002;-67
2023/05/14 00:48:17;;;;;;;57.43;3.10;;;;;;;;;;5072519;28;20872;-67
2023/05/14 00:50:44;;;;;;;57.90;3.90;;;;;;;;;;5072290;28;20471;-67
2023/05/14 00:53:12;;;;;;;57.70;3.03;;;;;;;;;;5072350;28;21057;-67
2023/05/14 00:55:39;;;;;;;57.27;2.30;;;;;;;;;;5072254;28;20449;-67
2023/05/14 00:58:08;;;;;;;57.70;3.17;;;;;;;;;;5072174;28;20443;-67
2023/05/14 01:00:35;;;;;;;57.70;3.43;;;;;;;;;;5071360;28;20471;-67
2023/05/14 01:03:04;;;;;;;57.20;2.20;;;;;;;;;;5072388;28;20951;-67
2023/05/14 01:05:36;;;;;;;57.27;2.93;;;;;;;;;;5072002;28;20486;-67
2023/05/14 01:08:09;;;;;;;57.53;3.03;;;;;;;;;;5072122;28;20451;-67
2023/05/14 01:10:39;;;;;;;57.50;2.87;;;;;;;;;;5072009;28;20479;-67
2023/05/14 01:13:10;;;;;;;58.00;3.00;;;;;;;;;;5072361;28;20822;-67
2023/05/14 01:15:40;;;;;;;57.50;2.80;;;;;;;;;;5072382;28;20454;-67
2023/05/14 01:18:09;;;;;;;57.73;3.50;;;;;;;;;;5072036;28;20451;-67
2023/05/14 01:20:36;;;;;;;57.40;2.60;;;;;;;;;;5071650;28;20502;-67
2023/05/14 01:23:05;;;;;;;59.17;3.57;;;;;;;;;;5072052;28;20816;-67
2023/05/14 01:25:32;;;;;;;59.70;2.73;;;;;;;;;;5071922;28;20498;-67
2023/05/14 01:28:02;;;;;;;57.37;2.50;;;;;;;;;;5072216;28;20866;-67
2023/05/14 01:30:32;;;;;;;58.47;3.67;;;;;;;;;;5071587;28;20471;-67
2023/05/14 01:33:00;;;;;;;59.30;4.30;;;;;;;;;;5071706;28;20460;-67
2023/05/14 01:35:28;;;;;;;58.37;3.07;;;;;;;;;;5071961;28;20815;-67
2023/05/14 01:37:56;;;;;;;58.50;3.67;;;;;;;;;;5071940;28;20459;-67
2023/05/14 01:40:25;;;;;;;57.13;2.20;;;;;;;;;;5071794;28;20479;-67
2023/05/14 01:42:53;;;;;;;57.17;2.33;;;;;;;;;;5071925;28;20542;-67
2023/05/14 01:45:20;;;;;;;57.80;3.30;;;;;;;;;;5071592;28;20479;-67
2023/05/14 01:47:48;;;;;;;59.60;4.10;;;;;;;;;;5071688;28;20813;-67
2023/05/14 01:50:15;;;;;;;57.17;2.73;;;;;;;;;;5069621;28;20475;-67
2023/05/14 01:52:42;;;;;;;57.47;3.03;;;;;;;;;;5071705;28;20454;-67
2023/05/14 01:55:09;;;;;;;57.90;4.30;;;;;;;;;;5071557;28;20443;-67
2023/05/14 01:57:38;;;;;;;59.27;3.80;;;;;;;;;;5071520;28;20456;-67
2023/05/14 02:00:06;;;;;;;57.70;4.03;;;;;;;;;;5071152;28;20471;-67
2023/05/14 02:02:33;;;;;;;57.03;2.40;;;;;;;;;;5071470;28;20458;-67
2023/05/14 02:05:00;;;;;;;58.37;4.13;;;;;;;;;;5071495;28;20478;-67
2023/05/14 02:07:27;;;;;;;58.30;3.10;;;;;;;;;;5071466;28;20447;-67
2023/05/14 02:09:54;;;;;;;57.07;2.80;;;;;;;;;;5071213;28;20794;-67
2023/05/14 02:12:21;;;;;;;58.00;3.00;;;;;;;;;;5073045;28;20492;-67
2023/05/14 02:14:50;;;;;;;57.70;3.00;;;;;;;;;;5075597;28;20798;-67
2023/05/14 02:17:17;;;;;;;57.67;2.90;;;;;;;;;;5075338;28;20678;-66
2023/05/14 02:19:45;;;;;;;57.30;2.37;;;;;;;;;;5075047;28;20450;-66
2023/05/14 02:22:12;;;;;;;57.47;2.60;;;;;;;;;;5075284;28;20977;-66
2023/05/14 02:24:39;;;;;;;57.43;2.70;;;;;;;;;;5075136;28;20462;-66
2023/05/14 02:27:07;;;;;;;57.37;2.40;;;;;;;;;;5075255;28;20534;-66
2023/05/14 02:29:34;;;;;;;57.47;2.90;;;;;;;;;;5075240;28;20447;-66
2023/05/14 02:32:02;;;;;;;57.30;2.90;;;;;;;;;;5075056;28;20467;-66
2023/05/14 02:34:29;;;;;;;59.90;3.37;;;;;;;;;;5075049;28;20448;-66
2023/05/14 02:36:57;;;;;;;57.40;2.97;;;;;;;;;;5074892;28;20451;-66
2023/05/14 02:39:24;;;;;;;57.03;2.43;;;;;;;;;;5074902;28;20530;-67
2023/05/14 02:41:51;;;;;;;57.60;2.93;;;;;;;;;;5075021;28;20473;-67
2023/05/14 02:44:18;;;;;;;57.27;2.90;;;;;;;;;;5074989;28;20451;-66
2023/05/14 02:46:45;;;;;;;57.70;3.23;;;;;;;;;;5074681;28;20479;-66
2023/05/14 02:49:13;;;;;;;57.80;2.80;;;;;;;;;;5074256;28;20451;-66
2023/05/14 02:51:40;;;;;;;58.57;3.33;;;;;;;;;;5074698;28;20497;-66
2023/05/14 02:54:08;;;;;;;56.93;2.40;;;;;;;;;;5074852;28;20447;-66
2023/05/14 02:56:35;;;;;;;57.50;2.60;;;;;;;;;;5074748;28;20447;-67
2023/05/14 02:59:02;;;;;;;57.37;2.50;;;;;;;;;;5074367;28;20457;-67
2023/05/14 03:01:29;;;;;;;58.60;3.60;;;;;;;;;;5074453;28;20467;-67
2023/05/14 03:03:56;;;;;;;57.50;2.80;;;;;;;;;;5074458;28;20513;-67
2023/05/14 03:06:25;;;;;;;57.00;2.40;;;;;;;;;;5074300;28;20483;-67
2023/05/14 03:08:52;;;;;;;57.27;2.70;;;;;;;;;;5074206;28;20451;-67
2023/05/14 03:11:19;;;;;;;57.60;2.83;;;;;;;;;;5074505;28;20474;-67
2023/05/14 03:13:46;;;;;;;58.10;3.00;;;;;;;;;;5074262;28;20958;-67
2023/05/14 03:16:13;;;;;;;57.30;2.80;;;;;;;;;;5074160;28;20443;-67
2023/05/14 03:18:40;;;;;;;56.93;2.40;;;;;;;;;;5073867;28;20816;-67
2023/05/14 03:21:08;;;;;;;57.23;2.13;;;;;;;;;;5074362;28;20472;-67
2023/05/14 03:23:36;;;;;;;57.43;2.50;;;;;;;;;;5073272;28;20998;-67
2023/05/14 03:26:03;;;;;;;57.27;2.40;;;;;;;;;;5074129;28;20483;-67
2023/05/14 03:28:31;;;;;;;57.53;2.60;;;;;;;;;;5073933;28;20458;-67
2023/05/14 03:30:58;;;;;;;59.30;3.57;;;;;;;;;;5073824;28;20483;-67
2023/05/14 03:33:25;;;;;;;57.60;3.10;;;;;;;;;;5073877;28;20466;-67
2023/05/14 03:35:52;;;;;;;57.70;2.57;;;;;;;;;;5074328;28;20448;-67
2023/05/14 03:38:19;;;;;;;57.37;2.80;;;;;;;;;;5074075;28;20444;-67
2023/05/14 03:40:47;;;;;;;57.47;2.57;;;;;;;;;;5073861;28;20582;-67
2023/05/14 03:43:15;;;;;;;57.70;3.33;;;;;;;;;;5073818;28;21026;-67
2023/05/14 03:45:42;;;;;;;57.37;2.70;;;;;;;;;;5073761;28;20483;-67
2023/05/14 03:48:09;;;;;;;57.60;2.70;;;;;;;;;;5073506;28;20458;-67
2023/05/14 03:50:36;;;;;;;59.93;4.10;;;;;;;;;;5073435;28;20471;-67
2023/05/14 03:53:03;;;;;;;58.97;3.40;;;;;;;;;;5073970;28;20450;-67
2023/05/14 03:55:30;;;;;;;57.97;3.37;;;;;;;;;;5073635;28;20814;-67
2023/05/14 03:57:59;;;;;;;57.20;2.30;;;;;;;;;;5073667;28;20661;-67
2023/05/14 04:00:26;;;;;;;56.70;2.30;;;;;;;;;;5073131;28;20526;-67
2023/05/14 04:02:53;;;;;;;57.27;2.60;;;;;;;;;;5073357;28;20447;-67
2023/05/14 04:05:20;;;;;;;57.10;2.30;;;;;;;;;;5073422;28;20450;-67
2023/05/14 04:07:47;;;;;;;57.87;3.53;;;;;;;;;;5073371;28;20449;-67
2023/05/14 04:10:15;;;;;;;57.03;2.40;;;;;;;;;;5072902;28;20843;-67
2023/05/14 04:12:42;;;;;;;57.23;2.40;;;;;;;;;;5072937;28;20455;-67
2023/05/14 04:15:11;;;;;;;57.07;2.60;;;;;;;;;;5073060;28;20443;-67
2023/05/14 04:17:38;;;;;;;57.27;2.40;;;;;;;;;;5073221;28;20451;-67
2023/05/14 04:20:06;;;;;;;58.10;3.10;;;;;;;;;;5072880;28;21058;-67
2023/05/14 04:22:33;;;;;;;57.40;2.90;;;;;;;;;;5073024;28;20537;-67
2023/05/14 04:25:00;;;;;;;58.17;3.10;;;;;;;;;;5072928;28;20735;-67
2023/05/14 04:27:27;;;;;;;56.90;2.40;;;;;;;;;;5072731;28;20483;-67
2023/05/14 04:29:55;;;;;;;57.10;2.30;;;;;;;;;;5072636;28;20451;-67
2023/05/14 04:32:23;;;;;;;57.30;2.33;;;;;;;;;;5072946;28;20447;-67
2023/05/14 04:34:50;;;;;;;58.80;2.67;;;;;;;;;;5072827;28;20895;-67
2023/05/14 04:37:17;;;;;;;58.23;3.53;;;;;;;;;;5072856;28;20443;-67
2023/05/14 04:39:44;;;;;;;57.57;2.80;;;;;;;;;;5072242;28;20458;-67
2023/05/14 04:42:12;;;;;;;57.90;2.77;;;;;;;;;;5072506;28;20813;-67
2023/05/14 04:44:39;;;;;;;57.20;2.97;;;;;;;;;;5072710;28;20553;-67
2023/05/14 04:47:06;;;;;;;57.50;2.80;;;;;;;;;;5072694;28;20497;-67
2023/05/14 04:49:35;;;;;;;57.17;2.70;;;;;;;;;;5072214;28;20455;-67
2023/05/14 04:52:02;;;;;;;57.27;2.57;;;;;;;;;;5072589;28;20596;-67
2023/05/14 04:54:29;;;;;;;57.40;2.60;;;;;;;;;;5072814;28;20827;-67
2023/05/14 04:56:56;;;;;;;57.23;2.60;;;;;;;;;;5072368;28;20451;-67
2023/05/14 04:59:23;;;;;;;56.93;2.27;;;;;;;;;;5072083;28;20447;-67
2023/05/14 05:01:51;;;;;;;57.40;2.80;;;;;;;;;;5072143;28;20468;-67
2023/05/14 05:04:18;;;;;;;56.97;2.60;;;;;;;;;;5072269;28;20501;-67
2023/05/14 05:06:47;;;;;;;58.00;2.80;;;;;;;;;;5072159;28;20479;-67
2023/05/14 05:09:15;;;;;;;59.40;3.37;;;;;;;;;;5071767;28;20450;-67
2023/05/14 05:11:42;;;;;;;57.30;2.40;;;;;;;;;;5072223;28;20521;-67
2023/05/14 05:14:09;;;;;;;57.50;2.80;;;;;;;;;;5072188;28;20451;-67
2023/05/14 05:16:36;;;;;;;57.27;2.90;;;;;;;;;;5072225;28;20439;-67
2023/05/14 05:19:03;;;;;;;57.07;2.20;;;;;;;;;;5071801;28;20451;-67
2023/05/14 05:21:30;;;;;;;57.20;2.40;;;;;;;;;;5071866;28;20838;-67
2023/05/14 05:23:59;;;;;;;57.63;3.47;;;;;;;;;;5071724;28;20471;-67
2023/05/14 05:26:27;;;;;;;57.50;2.80;;;;;;;;;;5072143;28;20872;-66
2023/05/14 05:28:54;;;;;;;57.27;2.80;;;;;;;;;;5071747;28;20451;-67
2023/05/14 05:31:21;;;;;;;57.80;3.40;;;;;;;;;;5071865;28;20832;-67
2023/05/14 05:33:48;;;;;;;57.20;2.40;;;;;;;;;;5071877;28;20455;-67
2023/05/14 05:36:16;;;;;;;57.77;3.37;;;;;;;;;;5071790;28;20449;-67
2023/05/14 05:38:43;;;;;;;57.40;2.77;;;;;;;;;;5071675;28;20512;-67
2023/05/14 05:41:11;;;;;;;56.90;2.10;;;;;;;;;;5071656;28;20484;-67
2023/05/14 05:43:38;;;;;;;58.03;2.87;;;;;;;;;;5071820;28;20453;-67
2023/05/14 05:46:05;;;;;;;57.30;2.83;;;;;;;;;;5072417;28;20541;-67
2023/05/14 05:48:32;;;;;;;57.07;2.43;;;;;;;;;;5077874;28;20443;-67
2023/05/14 05:51:00;;;;;;;57.60;3.20;;;;;;;;;;5078260;28;20806;-67
2023/05/14 05:53:27;;;;;;;58.30;4.00;;;;;;;;;;5078467;28;20451;-67
2023/05/14 05:55:54;;;;;;;57.20;3.13;;;;;;;;;;5078618;28;20455;-67
2023/05/14 05:58:22;;;;;;;57.60;2.63;;;;;;;;;;5078269;28;20447;-67
2023/05/14 06:00:50;;;;;;;58.00;3.30;;;;;;;;;;5077979;28;20470;-67
2023/05/14 06:03:17;;;;;;;57.80;2.70;;;;;;;;;;5078453;28;20459;-67
2023/05/14 06:05:45;;;;;;;57.50;2.80;;;;;;;;;;5078525;28;20451;-67
2023/05/14 06:08:12;;;;;;;58.37;3.47;;;;;;;;;;5078270;28;20849;-67
2023/05/14 06:10:39;;;;;;;57.53;3.30;;;;;;;;;;5078180;28;20471;-67
2023/05/14 06:13:06;;;;;;;57.10;2.60;;;;;;;;;;5078137;28;20892;-67
2023/05/14 06:15:35;;;;;;;56.90;2.40;;;;;;;;;;5078237;28;20453;-67
2023/05/14 06:18:02;;;;;;;57.00;2.40;;;;;;;;;;5077927;28;20447;-67
2023/05/14 06:20:29;;;;;;;57.77;3.10;;;;;;;;;;5077983;28;20467;-67
2023/05/14 06:22:56;;;;;;;57.17;2.93;;;;;;;;;;5078221;28;20447;-69
2023/05/14 06:25:23;;;;;;;57.33;2.53;;;;;;;;;;5077937;28;20955;-69
2023/05/14 06:27:50;;;;;;;57.03;2.27;;;;;;;;;;5077934;28;20505;-69
2023/05/14 06:30:17;;;;;;;57.30;2.77;;;;;;;;;;5077619;28;20471;-69
2023/05/14 06:32:46;;;;;;;59.90;2.70;;;;;;;;;;5077949;28;20447;-69
2023/05/14 06:35:14;;;;;;;57.30;3.07;;;;;;;;;;5078245;28;20467;-69
2023/05/14 06:37:41;;;;;;;57.03;2.43;;;;;;;;;;5078055;28;20439;-69
2023/05/14 06:40:09;;;;;;;58.63;3.10;;;;;;;;;;5077421;28;21015;-69
2023/05/14 06:42:36;;;;;;;57.67;3.43;;;;;;;;;;5077865;28;20479;-69
2023/05/14 06:45:03;;;;;;;57.07;2.70;;;;;;;;;;5077782;28;20824;-69
2023/05/14 06:47:31;;;;;;;56.97;2.70;;;;;;;;;;5077725;28;20485;-69
2023/05/14 06:50:00;;;;;;;57.50;2.90;;;;;;;;;;5077541;28;20473;-69
2023/05/14 06:52:27;;;;;;;57.60;3.60;;;;;;;;;;5077803;28;20553;-69
2023/05/14 06:54:54;;;;;;;57.20;2.80;;;;;;;;;;5077895;28;20447;-69
2023/05/14 06:57:21;;;;;;;57.40;2.70;;;;;;;;;;5077838;28;20445;-69
2023/05/14 06:59:49;;;;;;;57.20;2.57;;;;;;;;;;5072936;28;20831;-69
2023/05/14 07:02:16;;;;;;;57.30;2.70;;;;;;;;;;5074799;28;20546;-69
2023/05/14 07:04:43;;;;;;;57.20;2.90;;;;;;;;;;5074644;28;20838;-67
2023/05/14 07:07:14;;;;;;;57.40;2.67;;;;;;;;;;5074583;28;20479;-67
2023/05/14 07:09:41;;;;;;;56.90;2.30;;;;;;;;;;5074201;28;20450;-69
2023/05/14 07:12:09;;;;;;;57.47;2.63;;;;;;;;;;5074426;28;20463;-69
2023/05/14 07:14:36;;;;;;;57.50;2.60;;;;;;;;;;5074534;28;20444;-67
2023/05/14 07:17:03;;;;;;;57.80;2.67;;;;;;;;;;5074393;28;20446;-67
2023/05/14 07:19:30;;;;;;;57.30;3.03;;;;;;;;;;5074188;28;20447;-67
2023/05/14 07:21:57;;;;;;;57.60;2.77;;;;;;;;;;5074193;28;20852;-67
2023/05/14 07:24:26;;;;;;;57.10;2.50;;;;;;;;;;5074098;28;20459;-67
2023/05/14 07:26:53;;;;;;;59.93;3.33;;;;;;;;;;5073911;28;20479;-67
2023/05/14 07:29:20;;;;;;;57.10;2.70;;;;;;;;;;5073852;28;20443;-67
2023/05/14 07:31:47;;;;;;;57.83;3.80;;;;;;;;;;5074088;28;20471;-67
2023/05/14 07:34:14;;;;;;;57.10;2.70;;;;;;;;;;5073929;28;20443;-67
2023/05/14 07:36:41;;;;;;;57.10;2.87;;;;;;;;;;5073983;28;20733;-67
2023/05/14 07:39:08;;;;;;;57.97;3.17;;;;;;;;;;5073430;28;20932;-67
2023/05/14 07:41:37;;;;;;;58.90;3.40;;;;;;;;;;5073917;28;20490;-67
2023/05/14 07:44:04;;;;;;;57.53;3.10;;;;;;;;;;5073877;28;20448;-67
2023/05/14 07:46:31;;;;;;;57.13;2.73;;;;;;;;;;5073593;28;20452;-67
2023/05/14 07:48:58;;;;;;;56.80;2.30;;;;;;;;;;5073394;28;20827;-67
2023/05/14 07:51:27;;;;;;;57.60;2.87;;;;;;;;;;5073671;28;20475;-67
2023/05/14 07:53:54;;;;;;;57.40;2.80;;;;;;;;;;5073754;28;20447;-67
2023/05/14 07:56:21;;;;;;;57.50;3.13;;;;;;;;;;5073714;28;20450;-67
2023/05/14 07:58:49;;;;;;;57.40;3.07;;;;;;;;;;5073054;28;20924;-67
2023/05/14 08:01:17;;;;;;;58.00;3.07;;;;;;;;;;5073311;28;20484;-67
2023/05/14 08:03:44;;;;;;;59.40;2.63;;;;;;;;;;5073489;28;20846;-67
2023/05/14 08:06:12;;;;;;;57.57;2.80;;;;;;;;;;5073099;28;20450;-67
2023/05/14 08:08:39;;;;;;;56.97;2.30;;;;;;;;;;5072555;28;20487;-67
2023/05/14 08:11:06;;;;;;;59.10;2.77;;;;;;;;;;5072655;28;20471;-67
2023/05/14 08:13:33;;;;;;;57.20;2.50;;;;;;;;;;5073202;28;20924;-67
2023/05/14 08:16:02;;;;;;;57.53;3.00;;;;;;;;;;5073135;28;20452;-67
2023/05/14 08:18:29;;;;;;;56.90;2.30;;;;;;;;;;5072765;28;20461;-67
2023/05/14 08:20:56;;;;;;;56.93;2.33;;;;;;;;;;5072627;28;20474;-67
2023/05/14 08:23:23;;;;;;;56.93;2.50;;;;;;;;;;5072523;28;20447;-67
2023/05/14 08:25:50;;;;;;;57.67;2.50;;;;;;;;;;5072860;28;20466;-68
2023/05/14 08:28:17;;;;;;;58.00;3.13;;;;;;;;;;5072672;28;20483;-68
2023/05/14 08:30:44;;;;;;;57.57;2.67;;;;;;;;;;5073047;28;20467;-68
2023/05/14 08:33:13;;;;;;;56.87;2.00;;;;;;;;;;5072941;28;20450;-67
2023/05/14 08:35:40;;;;;;;57.30;2.73;;;;;;;;;;5072633;28;20526;-67
2023/05/14 08:38:07;;;;;;;57.27;2.63;;;;;;;;;;5072694;28;20448;-67
2023/05/14 08:40:34;;;;;;;57.03;2.33;;;;;;;;;;5072478;28;20471;-70
2023/05/14 08:43:02;;;;;;;57.50;2.57;;;;;;;;;;5072517;28;20447;-68
2023/05/14 08:45:32;;;;;;;57.53;2.37;;;;;;;;;;5072556;28;20454;-68
2023/05/14 08:48:00;;;;;;;57.27;2.63;;;;;;;;;;5072223;28;20482;-68
2023/05/14 08:50:29;;;;;;;56.83;2.43;;;;;;;;;;5072259;28;20467;-68
2023/05/14 08:52:56;;;;;;;56.93;2.30;;;;;;;;;;5072393;28;20443;-68
2023/05/14 08:55:24;;;;;;;56.90;2.77;;;;;;;;;;5072475;28;20807;-68
2023/05/14 08:57:52;;;;;;;57.60;2.77;;;;;;;;;;5072827;28;20444;-68
2023/05/14 09:00:19;;;;;;;58.10;3.90;;;;;;;;;;5071793;28;20475;-68
2023/05/14 09:02:47;;;;;;;57.00;2.70;;;;;;;;;;5072208;28;20805;-68
2023/05/14 09:05:15;;;;;;;60.47;3.90;;;;;;;;;;5072403;28;20624;-68
2023/05/14 09:07:43;;;;;;;56.97;2.30;;;;;;;;;;5072222;28;20483;-68
2023/05/14 09:10:11;;;;;;;57.30;2.97;;;;;;;;;;5071739;28;21003;-68
2023/05/14 09:12:38;;;;;;;57.67;3.00;;;;;;;;;;5072454;28;20970;-68
2023/05/14 09:15:07;;;;;;;57.00;2.30;;;;;;;;;;5071972;28;20447;-67
2023/05/14 09:17:35;;;;;;;56.53;2.03;;;;;;;;;;5072207;28;20513;-67
2023/05/14 09:20:02;;;;;;;57.00;2.13;;;;;;;;;;5071685;28;20451;-67
2023/05/14 09:22:31;;;;;;;57.50;2.47;;;;;;;;;;5071237;28;20458;-67
2023/05/14 09:25:08;;;;;;;57.27;2.20;;;;;;;;;;5071881;28;20809;-67
2023/05/14 09:27:35;;;;;;;57.17;2.87;;;;;;;;;;5071915;28;20478;-67
2023/05/14 09:30:06;;;;;;;57.17;2.20;;;;;;;;;;5071671;28;20581;-67
2023/05/14 09:32:37;;;;;;;57.80;3.37;;;;;;;;;;5071983;28;20443;-67
2023/05/14 09:35:16;;;;;;;57.20;3.07;;;;;;;;;;5071957;28;20569;-67
2023/05/14 09:37:43;;;;;;;57.10;2.40;;;;;;;;;;5071774;28;20452;-67
2023/05/14 09:40:12;;;;;;;56.83;2.33;;;;;;;;;;5071257;28;21002;-67
2023/05/14 09:42:39;;;;;;;56.97;2.40;;;;;;;;;;5071910;28;20454;-68
2023/05/14 09:45:08;;;;;;;57.87;2.70;;;;;;;;;;5071858;28;20451;-67
2023/05/14 09:47:35;;;;;;;57.47;2.50;;;;;;;;;;5071895;28;20479;-67
2023/05/14 09:50:02;;;;;;;57.47;2.30;;;;;;;;;;5071346;28;20455;-67
2023/05/14 09:52:30;;;;;;;57.50;2.50;;;;;;;;;;5071548;28;20538;-67
2023/05/14 09:54:57;;;;;;;57.30;2.90;;;;;;;;;;5071830;28;20447;-67
2023/05/14 09:57:25;;;;;;;57.07;2.50;;;;;;;;;;5071779;28;20506;-68
2023/05/14 09:59:53;;;;;;;58.07;3.10;;;;;;;;;;5071123;28;20447;-68
2023/05/14 10:02:23;;;;;;;57.10;2.43;;;;;;;;;;5071618;28;20454;-68
2023/05/14 10:04:51;;;;;;;56.67;2.10;;;;;;;;;;5071486;28;20447;-68
2023/05/14 10:07:21;;;;;;;56.93;2.17;;;;;;;;;;5071681;28;20584;-68
2023/05/14 10:09:49;;;;;;;56.70;2.40;;;;;;;;;;5071284;28;20530;-68
2023/05/14 10:12:17;;;;;;;56.90;2.23;;;;;;;;;;5071591;28;20450;-67
2023/05/14 10:14:52;;;;;;;57.47;2.43;;;;;;;;;;5071463;28;20451;-67
2023/05/14 10:17:20;;;;;;;57.60;3.47;;;;;;;;;;5071418;28;20447;-67
2023/05/14 10:19:48;;;;;;;57.30;2.40;;;;;;;;;;5070891;28;20443;-67
2023/05/14 10:22:17;;;;;;;56.80;2.20;;;;;;;;;;5071714;28;20443;-67
2023/05/14 10:24:44;;;;;;;56.87;2.00;;;;;;;;;;5071519;28;20455;-67
2023/05/14 10:27:12;;;;;;;57.13;2.40;;;;;;;;;;5071415;28;20448;-68
2023/05/14 10:29:39;;;;;;;57.77;2.70;;;;;;;;;;5070911;28;20489;-68
2023/05/14 10:32:09;;;;;;;57.40;2.50;;;;;;;;;;5071300;28;20463;-67
2023/05/14 10:34:37;;;;;;;58.47;2.70;;;;;;;;;;5075126;28;20530;-67
2023/05/14 10:37:05;;;;;;;57.30;2.43;;;;;;;;;;5074933;28;20924;-67
2023/05/14 10:39:42;;;;;;;57.37;2.93;;;;;;;;;;5074707;28;20446;-67
2023/05/14 10:42:11;;;;;;;56.90;2.23;;;;;;;;;;5074648;28;20474;-68
2023/05/14 10:44:41;;;;;;;57.37;2.63;;;;;;;;;;5074659;28;20462;-68
2023/05/14 10:47:10;;;;;;;56.80;2.23;;;;;;;;;;5074971;28;20459;-68
2023/05/14 10:49:37;;;;;;;56.73;2.40;;;;;;;;;;5074394;28;20487;-68
2023/05/14 10:52:04;;;;;;;57.10;2.40;;;;;;;;;;5074709;28;20466;-68
2023/05/14 10:54:35;;;;;;;56.80;2.20;;;;;;;;;;5074614;28;20447;-68
2023/05/14 10:57:02;;;;;;;56.53;2.00;;;;;;;;;;5074530;28;20443;-68
2023/05/14 10:59:29;;;;;;;57.37;2.27;;;;;;;;;;5074488;28;20447;-68
2023/05/14 11:01:57;;;;;;;57.20;2.20;;;;;;;;;;5074678;28;20526;-68
2023/05/14 11:04:28;;;;;;;56.30;2.27;;;;;;;;;;5074632;28;20453;-68
2023/05/14 11:06:55;;;;;;;56.90;2.60;;;;;;;;;;5074559;28;20448;-68
2023/05/14 11:09:24;;;;;;;57.40;3.00;;;;;;;;;;5074099;28;20479;-68
2023/05/14 11:11:51;;;;;;;57.40;2.40;;;;;;;;;;5074176;28;21011;-68
2023/05/14 11:14:18;;;;;;;56.67;2.20;;;;;;;;;;5074708;28;20443;-67
2023/05/14 11:16:46;;;;;;;57.87;3.23;;;;;;;;;;5074529;28;20443;-67
2023/05/14 11:19:13;;;;;;;57.87;3.13;;;;;;;;;;5074037;28;20443;-67
2023/05/14 11:21:41;;;;;;;57.10;2.37;;;;;;;;;;5074169;28;20467;-67
2023/05/14 11:24:09;;;;;;;56.30;2.10;;;;;;;;;;5073988;28;20805;-67
2023/05/14 11:26:36;;;;;;;56.57;2.07;;;;;;;;;;5074358;28;20451;-68
2023/05/14 11:29:03;;;;;;;57.03;2.30;;;;;;;;;;5073820;28;20574;-68
2023/05/14 11:31:30;;;;;;;57.10;2.30;;;;;;;;;;5074076;28;20467;-68
2023/05/14 11:33:57;;;;;;;56.80;2.20;;;;;;;;;;5074082;28;20461;-68
2023/05/14 11:36:24;;;;;;;57.60;2.90;;;;;;;;;;5073939;28;20443;-68
2023/05/14 11:38:53;;;;;;;57.77;2.50;;;;;;;;;;5073448;28;20470;-68
2023/05/14 11:41:21;;;;;;;56.87;2.23;;;;;;;;;;5073836;28;21072;-68
2023/05/14 11:43:48;;;;;;;57.90;2.23;;;;;;;;;;5073754;28;20478;-68
2023/05/14 11:46:18;;;;;;;56.63;1.97;;;;;;;;;;5073165;28;20443;-68
2023/05/14 11:48:45;;;;;;;57.23;2.47;;;;;;;;;;5073401;28;20479;-68
2023/05/14 11:51:12;;;;;;;57.50;2.23;;;;;;;;;;5073380;28;20474;-68
2023/05/14 11:53:40;;;;;;;56.67;2.03;;;;;;;;;;5073883;28;20451;-68
2023/05/14 11:56:08;;;;;;;57.10;2.50;;;;;;;;;;5070551;28;20817;-68
2023/05/14 11:58:35;;;;;;;56.67;2.10;;;;;;;;;;5062222;28;20441;-68
2023/05/14 12:01:02;;;;;;;57.20;2.40;;;;;;;;;;5062134;28;20491;-68
2023/05/14 12:03:30;;;;;;;56.70;2.40;;;;;;;;;;5061903;28;20445;-68
2023/05/14 12:05:58;;;;;;;57.97;3.23;;;;;;;;;;5064619;28;20447;-68
2023/05/14 12:08:26;;;;;;;56.37;2.10;;;;;;;;;;5073416;28;20487;-68
2023/05/14 12:10:53;;;;;;;56.47;1.73;;;;;;;;;;5073185;28;20474;-68
2023/05/14 12:13:22;;;;;;;57.07;2.30;;;;;;;;;;5073192;28;20444;-68
2023/05/14 12:15:54;;;;;;;56.87;2.20;;;;;;;;;;5073224;28;20479;-68
2023/05/14 12:18:21;;;;;;;56.53;1.80;;;;;;;;;;5072953;28;20442;-68
2023/05/14 12:20:50;;;;;;;57.00;2.30;;;;;;;;;;5072874;28;20475;-69
2023/05/14 12:23:17;;;;;;;58.50;2.00;;;;;;;;;;5073377;28;20455;-69
2023/05/14 12:25:50;;;;;;;56.80;2.17;;;;;;;;;;5072834;28;20467;-68
2023/05/14 12:28:27;;;;;;;56.93;2.20;;;;;;;;;;5072757;28;20828;-68
2023/05/14 12:30:57;;;;;;;56.63;2.10;;;;;;;;;;5072514;28;20469;-68
2023/05/14 12:33:25;;;;;;;57.10;2.27;;;;;;;;;;5072962;28;20450;-68
2023/05/14 12:35:56;;;;;;;57.30;2.60;;;;;;;;;;5072889;28;20484;-68
2023/05/14 12:38:23;;;;;;;57.07;2.73;;;;;;;;;;5072749;28;20451;-68
2023/05/14 12:40:50;;;;;;;57.87;3.50;;;;;;;;;;5072277;28;20471;-68
2023/05/14 12:43:17;;;;;;;56.47;2.47;;;;;;;;;;5072548;28;20451;-68
2023/05/14 12:45:44;;;;;;;57.23;2.10;;;;;;;;;;5072776;28;20450;-68
2023/05/14 12:48:13;;;;;;;57.37;2.13;;;;;;;;;;5072528;28;20546;-68
2023/05/14 12:50:40;;;;;;;57.47;2.53;;;;;;;;;;5072056;28;20471;-68
2023/05/14 12:53:08;;;;;;;57.00;2.13;;;;;;;;;;5072466;28;20448;-68
2023/05/14 12:55:35;;;;;;;57.20;2.10;;;;;;;;;;5072168;28;20447;-68
2023/05/14 12:58:02;;;;;;;56.73;2.20;;;;;;;;;;5071428;28;20534;-68
2023/05/14 13:00:29;;;;;;;56.90;2.00;;;;;;;;;;5072277;28;20809;-68
2023/05/14 13:02:56;;;;;;;56.80;1.90;;;;;;;;;;5072283;28;20843;-68
2023/05/14 13:05:25;;;;;;;56.70;2.10;;;;;;;;;;5072371;28;20448;-68
2023/05/14 13:07:53;;;;;;;57.37;2.60;;;;;;;;;;5072137;28;20447;-68
2023/05/14 13:10:20;;;;;;;57.30;2.63;;;;;;;;;;5071543;28;20498;-69
2023/05/14 13:12:47;;;;;;;56.63;2.03;;;;;;;;;;5072492;28;20453;-68
2023/05/14 13:15:14;;;;;;;57.30;2.27;;;;;;;;;;5072014;28;20455;-68
2023/05/14 13:17:41;;;;;;;57.43;2.10;;;;;;;;;;5072042;28;20859;-69
2023/05/14 13:20:09;;;;;;;56.73;2.10;;;;;;;;;;5071667;28;20463;-69
2023/05/14 13:22:37;;;;;;;56.70;2.10;;;;;;;;;;5071956;28;20504;-69
2023/05/14 13:25:05;;;;;;;56.70;2.20;;;;;;;;;;5071821;28;20466;-69
2023/05/14 13:27:32;;;;;;;57.10;2.20;;;;;;;;;;5072064;28;20866;-69
2023/05/14 13:29:59;;;;;;;56.37;1.93;;;;;;;;;;5071424;28;20540;-69
2023/05/14 13:32:26;;;;;;;57.47;2.87;;;;;;;;;;5071990;28;20955;-69
2023/05/14 13:34:53;;;;;;;56.80;2.07;;;;;;;;;;5071974;28;20444;-69
2023/05/14 13:37:21;;;;;;;56.50;2.27;;;;;;;;;;5071982;28;20546;-69
2023/05/14 13:39:49;;;;;;;57.63;2.30;;;;;;;;;;5071412;28;20448;-69
2023/05/14 13:42:16;;;;;;;56.50;2.00;;;;;;;;;;5072027;28;20843;-69
2023/05/14 13:44:43;;;;;;;56.50;2.27;;;;;;;;;;5071918;28;20439;-68
2023/05/14 13:47:10;;;;;;;57.90;3.10;;;;;;;;;;5071963;28;20443;-68
2023/05/14 13:49:39;;;;;;;56.50;2.10;;;;;;;;;;5071318;28;20974;-68
2023/05/14 13:52:06;;;;;;;56.40;2.00;;;;;;;;;;5071457;28;20478;-68
2023/05/14 13:54:33;;;;;;;56.80;2.10;;;;;;;;;;5071880;28;20444;-69
2023/05/14 13:57:02;;;;;;;56.23;1.97;;;;;;;;;;5071786;28;20454;-69
2023/05/14 13:59:29;;;;;;;56.07;1.80;;;;;;;;;;5071453;28;20483;-68
2023/05/14 14:01:56;;;;;;;57.97;2.00;;;;;;;;;;5071513;28;20468;-69
2023/05/14 14:04:24;;;;;;;57.20;2.30;;;;;;;;;;5071614;28;20447;-69
2023/05/14 14:06:51;;;;;;;56.87;1.97;;;;;;;;;;5071457;28;20824;-69
2023/05/14 14:09:18;;;;;;;56.37;1.80;;;;;;;;;;5074664;28;20442;-69
2023/05/14 14:11:45;;;;;;;56.93;2.13;;;;;;;;;;5075415;28;20467;-69
2023/05/14 14:14:14;;;;;;;57.30;2.97;;;;;;;;;;5075501;28;20452;-69
2023/05/14 14:16:41;;;;;;;56.47;1.80;;;;;;;;;;5075424;28;20477;-69
2023/05/14 14:19:08;;;;;;;57.30;2.00;;;;;;;;;;5074900;28;20475;-69
2023/05/14 14:21:38;;;;;;;56.40;1.93;;;;;;;;;;5075666;28;20467;-69
2023/05/14 14:24:05;;;;;;;56.53;1.73;;;;;;;;;;5075571;28;20493;-69
2023/05/14 14:26:33;;;;;;;56.40;1.53;;;;;;;;;;5075359;28;20447;-69
2023/05/14 14:29:00;;;;;;;56.80;1.97;;;;;;;;;;5075088;28;20503;-69
2023/05/14 14:31:28;;;;;;;56.70;1.90;;;;;;;;;;5075220;28;20475;-69
2023/05/14 14:33:55;;;;;;;56.70;1.87;;;;;;;;;;5075482;28;20447;-69